createdAt,value
2023-05-18T00:00:39.646Z,50.48
2023-05-18T00:01:41.994Z,50.75
2023-05-18T00:02:44.335Z,50.53
2023-05-18T00:03:46.753Z,50.55
2023-05-18T00:04:49.135Z,50.68
2023-05-18T00:05:51.778Z,50.24
2023-05-18T00:06:58.044Z,50.22
2023-05-18T00:08:01.138Z,50.11
2023-05-18T00:09:03.347Z,50.07
2023-05-18T00:10:07.678Z,49.99
2023-05-18T00:11:10.344Z,50.05
2023-05-18T00:12:12.628Z,50.19
2023-05-18T00:13:15.075Z,50.10
2023-05-18T00:14:17.510Z,50.80
2023-05-18T00:15:19.948Z,50.53
2023-05-18T00:16:22.213Z,50.37
2023-05-18T00:17:25.002Z,50.51
2023-05-18T00:18:28.753Z,50.43
2023-05-18T00:19:30.946Z,50.56
2023-05-18T00:20:35.349Z,50.66
2023-05-18T00:21:40.216Z,50.56
2023-05-18T00:22:43.126Z,50.30
2023-05-18T00:23:47.701Z,50.56
2023-05-18T00:24:50.559Z,50.52
2023-05-18T00:25:52.785Z,50.89
2023-05-18T00:26:55.369Z,50.46
2023-05-18T00:27:58.078Z,50.35
2023-05-18T00:29:00.486Z,50.30
2023-05-18T00:30:04.616Z,50.33
2023-05-18T00:31:07.470Z,50.06
2023-05-18T00:32:10.292Z,50.14
2023-05-18T00:33:12.617Z,50.13
2023-05-18T00:34:15.861Z,49.86
2023-05-18T00:35:18.067Z,49.95
2023-05-18T00:36:20.712Z,49.75
2023-05-18T00:37:23.115Z,49.67
2023-05-18T00:38:25.409Z,49.52
2023-05-18T00:39:27.687Z,49.60
2023-05-18T00:40:31.387Z,49.67
2023-05-18T00:41:33.711Z,49.60
2023-05-18T00:42:37.234Z,49.79
2023-05-18T00:43:42.546Z,49.47
2023-05-18T00:44:45.074Z,49.47
2023-05-18T00:45:47.713Z,49.60
2023-05-18T00:46:51.566Z,49.72
2023-05-18T00:47:53.849Z,49.80
2023-05-18T00:49:01.052Z,49.90
2023-05-18T00:50:03.923Z,50.06
2023-05-18T00:51:06.385Z,50.14
2023-05-18T00:52:09.044Z,50.18
2023-05-18T00:53:11.515Z,50.03
2023-05-18T00:54:14.371Z,50.36
2023-05-18T00:55:18.276Z,50.44
2023-05-18T00:56:24.951Z,50.53
2023-05-18T00:57:29.140Z,50.62
2023-05-18T00:58:31.550Z,50.50
2023-05-18T00:59:34.227Z,50.56
2023-05-18T01:00:38.236Z,50.52
2023-05-18T01:01:44.289Z,50.44
2023-05-18T01:02:46.792Z,50.44
2023-05-18T01:03:49.200Z,50.48
2023-05-18T01:04:52.224Z,50.41
2023-05-18T01:05:56.374Z,50.72
2023-05-18T01:07:00.602Z,50.68
2023-05-18T01:08:03.120Z,50.85
2023-05-18T01:09:08.381Z,51.02
2023-05-18T01:10:13.026Z,50.68
2023-05-18T01:11:34.410Z,50.77
2023-05-18T01:14:24.143Z,50.72
2023-05-18T01:17:14.523Z,50.99
2023-05-18T01:18:24.537Z,50.85
2023-05-18T01:19:44.925Z,51.50
2023-05-18T01:20:51.060Z,51.54
2023-05-18T01:22:00.255Z,51.41
2023-05-18T01:23:30.028Z,51.28
2023-05-18T01:24:45.000Z,51.35
2023-05-18T01:25:56.913Z,51.60
2023-05-18T01:27:01.523Z,51.58
2023-05-18T01:28:07.936Z,51.75
2023-05-18T01:29:13.499Z,51.80
2023-05-18T01:30:17.485Z,51.96
2023-05-18T01:31:20.449Z,52.18
2023-05-18T01:32:22.759Z,52.16
2023-05-18T01:33:26.032Z,51.96
2023-05-18T01:34:28.787Z,52.14
2023-05-18T01:35:33.731Z,51.73
2023-05-18T01:36:36.463Z,51.62
2023-05-18T01:37:39.324Z,51.83
2023-05-18T01:38:44.331Z,51.81
2023-05-18T01:39:47.031Z,51.77
2023-05-18T01:41:10.108Z,52.18
2023-05-18T01:42:18.736Z,52.22
2023-05-18T01:43:25.146Z,52.31
2023-05-18T01:44:32.286Z,52.50
2023-05-18T01:45:39.016Z,52.61
2023-05-18T01:47:12.415Z,52.57
2023-05-18T01:48:18.281Z,52.60
2023-05-18T01:49:33.042Z,52.68
2023-05-18T01:50:38.436Z,52.81
2023-05-18T01:51:47.341Z,52.66
2023-05-18T01:54:08.051Z,53.04
2023-05-18T01:55:14.999Z,53.23
2023-05-18T01:56:19.981Z,53.29
2023-05-18T01:57:26.236Z,53.41
2023-05-18T01:58:28.622Z,53.56
2023-05-18T01:59:31.143Z,54.01
2023-05-18T02:00:35.060Z,53.64
2023-05-18T02:01:38.102Z,54.15
2023-05-18T02:02:41.571Z,54.53
2023-05-18T02:03:44.520Z,54.34
2023-05-18T02:04:47.165Z,54.43
2023-05-18T02:05:50.284Z,54.65
2023-05-18T02:06:54.074Z,54.66
2023-05-18T02:07:57.661Z,55.22
2023-05-18T02:09:00.606Z,54.63
2023-05-18T02:10:03.430Z,54.25
2023-05-18T02:11:06.776Z,54.84
2023-05-18T02:12:10.078Z,54.54
2023-05-18T02:13:12.517Z,54.47
2023-05-18T02:14:15.105Z,54.47
2023-05-18T02:15:17.767Z,54.89
2023-05-18T02:16:20.102Z,55.02
2023-05-18T02:17:24.208Z,54.82
2023-05-18T02:18:28.347Z,54.81
2023-05-18T02:19:32.998Z,54.70
2023-05-18T02:20:37.143Z,54.88
2023-05-18T02:21:42.023Z,54.93
2023-05-18T02:22:45.486Z,54.99
2023-05-18T02:23:48.419Z,55.32
2023-05-18T02:24:51.377Z,54.46
2023-05-18T02:25:56.746Z,54.71
2023-05-18T02:27:01.350Z,55.00
2023-05-18T02:28:03.798Z,54.36
2023-05-18T02:29:06.388Z,55.39
2023-05-18T02:30:12.511Z,55.28
2023-05-18T02:31:15.478Z,54.91
2023-05-18T02:32:18.035Z,54.71
2023-05-18T02:33:23.298Z,54.61
2023-05-18T02:34:26.921Z,55.41
2023-05-18T02:35:29.594Z,55.84
2023-05-18T02:36:34.741Z,55.88
2023-05-18T02:37:41.738Z,55.59
2023-05-18T02:38:45.718Z,54.91
2023-05-18T02:39:48.030Z,55.49
2023-05-18T02:40:50.504Z,56.05
2023-05-18T02:41:52.859Z,56.03
2023-05-18T02:42:55.630Z,56.51
2023-05-18T02:43:59.002Z,55.85
2023-05-18T02:45:01.935Z,56.02
2023-05-18T02:46:05.361Z,55.91
2023-05-18T02:47:08.424Z,56.43
2023-05-18T02:48:12.683Z,56.36
2023-05-18T02:49:15.024Z,55.62
2023-05-18T02:50:17.796Z,55.50
2023-05-18T02:51:21.255Z,55.16
2023-05-18T02:52:23.756Z,54.73
2023-05-18T02:53:26.145Z,55.39
2023-05-18T02:54:31.227Z,55.69
2023-05-18T02:55:34.525Z,55.46
2023-05-18T02:56:40.886Z,55.28
2023-05-18T02:57:46.569Z,54.91
2023-05-18T02:58:49.992Z,54.74
2023-05-18T02:59:56.939Z,54.32
2023-05-18T03:00:59.870Z,54.24
2023-05-18T03:02:04.782Z,54.52
2023-05-18T03:03:09.185Z,54.57
2023-05-18T03:04:13.496Z,54.67
2023-05-18T03:05:19.730Z,54.42
2023-05-18T03:06:25.781Z,54.09
2023-05-18T03:07:30.843Z,53.96
2023-05-18T03:08:33.308Z,53.75
2023-05-18T03:09:35.791Z,53.48
2023-05-18T03:10:38.810Z,53.33
2023-05-18T03:11:41.589Z,53.80
2023-05-18T03:12:44.838Z,54.74
2023-05-18T03:13:48.027Z,53.95
2023-05-18T03:14:51.050Z,54.36
2023-05-18T03:15:53.336Z,54.19
2023-05-18T03:16:57.366Z,54.71
2023-05-18T03:18:00.098Z,54.63
2023-05-18T03:19:02.726Z,54.85
2023-05-18T03:20:11.037Z,54.85
2023-05-18T03:21:13.501Z,54.90
2023-05-18T03:22:15.853Z,54.73
2023-05-18T03:23:19.616Z,55.39
2023-05-18T03:24:22.236Z,55.44
2023-05-18T03:25:25.113Z,55.11
2023-05-18T03:26:29.695Z,54.58
2023-05-18T03:27:34.038Z,54.34
2023-05-18T03:28:38.114Z,54.37
2023-05-18T03:29:40.563Z,54.33
2023-05-18T03:30:43.117Z,54.04
2023-05-18T03:31:45.730Z,54.34
2023-05-18T03:32:49.553Z,54.84
2023-05-18T03:33:52.031Z,53.99
2023-05-18T03:34:54.871Z,53.42
2023-05-18T03:36:00.356Z,54.38
2023-05-18T03:37:03.557Z,54.38
2023-05-18T03:38:07.102Z,54.57
2023-05-18T03:39:11.443Z,54.48
2023-05-18T03:40:16.138Z,54.22
2023-05-18T03:41:19.146Z,54.53
2023-05-18T03:42:21.398Z,53.75
2023-05-18T03:43:25.275Z,54.52
2023-05-18T03:44:28.887Z,54.90
2023-05-18T03:45:32.779Z,54.21
2023-05-18T03:46:35.799Z,54.72
2023-05-18T03:47:38.876Z,54.36
2023-05-18T03:48:41.331Z,54.36
2023-05-18T03:49:43.775Z,54.89
2023-05-18T03:50:46.681Z,54.17
2023-05-18T03:51:51.888Z,53.83
2023-05-18T03:52:55.151Z,53.91
2023-05-18T03:53:57.819Z,54.09
2023-05-18T03:55:01.414Z,54.20
2023-05-18T03:56:03.946Z,54.24
2023-05-18T03:57:06.454Z,54.02
2023-05-18T03:58:09.007Z,53.52
2023-05-18T03:59:11.165Z,53.10
2023-05-18T04:00:15.206Z,53.01
2023-05-18T04:01:22.176Z,52.90
2023-05-18T04:02:26.070Z,53.10
2023-05-18T04:03:29.989Z,53.16
2023-05-18T04:04:32.709Z,53.29
2023-05-18T04:05:34.979Z,53.06
2023-05-18T04:06:37.687Z,52.78
2023-05-18T04:07:41.762Z,52.80
2023-05-18T04:08:45.570Z,52.71
2023-05-18T04:09:48.875Z,52.23
2023-05-18T04:10:51.932Z,52.44
2023-05-18T04:11:55.815Z,52.44
2023-05-18T04:12:57.977Z,51.98
2023-05-18T04:14:00.450Z,51.52
2023-05-18T04:15:03.555Z,52.01
2023-05-18T04:16:07.877Z,51.96
2023-05-18T04:17:10.810Z,52.42
2023-05-18T04:18:13.785Z,52.57
2023-05-18T04:19:18.548Z,52.55
2023-05-18T04:20:21.100Z,52.72
2023-05-18T04:21:23.547Z,52.42
2023-05-18T04:22:28.793Z,52.00
2023-05-18T04:23:32.806Z,52.61
2023-05-18T04:24:35.732Z,52.70
2023-05-18T04:25:38.789Z,52.36
2023-05-18T04:26:41.899Z,51.93
2023-05-18T04:27:44.748Z,51.96
2023-05-18T04:28:48.712Z,52.58
2023-05-18T04:29:52.287Z,51.84
2023-05-18T04:30:54.925Z,52.22
2023-05-18T04:31:59.031Z,51.87
2023-05-18T04:33:03.486Z,51.68
2023-05-18T04:34:08.415Z,51.93
2023-05-18T04:35:11.816Z,52.79
2023-05-18T04:36:18.455Z,53.06
2023-05-18T04:37:22.733Z,52.90
2023-05-18T04:38:26.454Z,52.88
2023-05-18T04:39:29.571Z,53.45
2023-05-18T04:40:33.307Z,53.13
2023-05-18T04:41:36.648Z,53.26
2023-05-18T04:42:42.384Z,53.47
2023-05-18T04:43:45.109Z,52.95
2023-05-18T04:44:48.339Z,53.60
2023-05-18T04:45:50.923Z,53.36
2023-05-18T04:46:55.537Z,53.88
2023-05-18T04:47:59.575Z,53.63
2023-05-18T04:49:03.011Z,53.79
2023-05-18T04:50:08.118Z,54.15
2023-05-18T04:51:10.851Z,54.31
2023-05-18T04:52:13.308Z,54.31
2023-05-18T04:53:17.602Z,54.65
2023-05-18T04:54:20.201Z,54.85
2023-05-18T04:55:25.148Z,54.78
2023-05-18T04:56:30.129Z,54.75
2023-05-18T04:57:32.363Z,54.20
2023-05-18T04:58:36.577Z,54.09
2023-05-18T05:00:52.295Z,54.92
2023-05-18T05:01:55.587Z,54.83
2023-05-18T05:02:59.947Z,54.53
2023-05-18T05:04:03.378Z,54.55
2023-05-18T05:05:06.895Z,53.73
2023-05-18T05:06:10.996Z,53.83
2023-05-18T05:07:13.550Z,53.90
2023-05-18T05:08:17.542Z,53.91
2023-05-18T05:09:20.977Z,53.74
2023-05-18T05:10:23.502Z,53.18
2023-05-18T05:11:25.940Z,53.21
2023-05-18T05:12:28.131Z,52.87
2023-05-18T05:13:30.401Z,53.16
2023-05-18T05:14:33.396Z,53.33
2023-05-18T05:15:36.361Z,53.36
2023-05-18T05:16:39.337Z,53.50
2023-05-18T05:17:43.494Z,53.52
2023-05-18T05:18:47.400Z,53.21
2023-05-18T05:19:51.448Z,52.70
2023-05-18T05:20:55.674Z,52.77
2023-05-18T05:21:58.124Z,53.22
2023-05-18T05:23:01.851Z,53.28
2023-05-18T05:24:05.463Z,52.78
2023-05-18T05:25:08.533Z,52.75
2023-05-18T05:26:12.171Z,52.77
2023-05-18T05:27:14.376Z,52.43
2023-05-18T05:28:17.584Z,52.55
2023-05-18T05:29:20.982Z,52.46
2023-05-18T05:30:23.561Z,52.92
2023-05-18T05:31:26.062Z,52.85
2023-05-18T05:32:28.507Z,52.96
2023-05-18T05:33:31.148Z,52.44
2023-05-18T05:34:33.528Z,52.81
2023-05-18T05:35:36.813Z,53.11
2023-05-18T05:36:39.482Z,52.64
2023-05-18T05:37:42.746Z,52.91
2023-05-18T05:38:45.235Z,54.90
2023-05-18T05:39:48.571Z,53.61
2023-05-18T05:40:52.842Z,53.81
2023-05-18T05:41:56.977Z,54.86
2023-05-18T05:42:59.979Z,52.94
2023-05-18T05:44:02.250Z,53.36
2023-05-18T05:45:06.256Z,52.59
2023-05-18T05:46:11.679Z,52.32
2023-05-18T05:47:15.198Z,53.40
2023-05-18T05:48:18.131Z,52.61
2023-05-18T05:49:21.340Z,52.07
2023-05-18T05:50:24.226Z,52.28
2023-05-18T05:51:28.444Z,51.87
2023-05-18T05:52:31.447Z,52.17
2023-05-18T05:53:33.781Z,52.27
2023-05-18T05:54:37.138Z,51.91
2023-05-18T05:55:41.360Z,51.80
2023-05-18T05:56:46.356Z,51.54
2023-05-18T05:57:49.955Z,51.46
2023-05-18T05:58:52.532Z,51.50
2023-05-18T05:59:55.453Z,51.98
2023-05-18T06:00:58.595Z,51.33
2023-05-18T06:02:01.487Z,52.20
2023-05-18T06:03:04.391Z,53.25
2023-05-18T06:04:12.081Z,54.19
2023-05-18T06:05:14.929Z,52.54
2023-05-18T06:06:18.243Z,51.39
2023-05-18T06:07:20.716Z,50.74
2023-05-18T06:08:24.401Z,50.20
2023-05-18T06:09:27.570Z,49.98
2023-05-18T06:10:30.719Z,51.10
2023-05-18T06:11:34.241Z,51.03
2023-05-18T06:12:36.735Z,50.74
2023-05-18T06:13:40.293Z,50.08
2023-05-18T06:14:43.927Z,50.95
2023-05-18T06:15:46.382Z,50.49
2023-05-18T06:16:49.533Z,49.41
2023-05-18T06:17:52.482Z,49.53
2023-05-18T06:18:55.311Z,49.55
2023-05-18T06:19:57.814Z,49.64
2023-05-18T06:21:00.724Z,50.21
2023-05-18T06:22:03.244Z,50.56
2023-05-18T06:23:07.494Z,49.23
2023-05-18T06:24:28.250Z,49.18
2023-05-18T06:26:56.615Z,50.22
2023-05-18T06:28:07.622Z,48.81
2023-05-18T06:29:14.978Z,48.94
2023-05-18T06:30:31.237Z,50.22
2023-05-18T06:31:47.686Z,49.05
2023-05-18T06:32:51.955Z,48.41
2023-05-18T06:33:54.275Z,49.55
2023-05-18T06:34:57.294Z,47.86
2023-05-18T06:35:59.838Z,47.86
2023-05-18T06:37:04.355Z,47.89
2023-05-18T06:38:06.826Z,49.10
2023-05-18T06:39:09.347Z,47.77
2023-05-18T06:40:13.455Z,46.96
2023-05-18T06:41:16.276Z,48.70
2023-05-18T06:42:19.247Z,48.70
2023-05-18T06:43:29.901Z,48.10
2023-05-18T06:44:36.197Z,49.00
2023-05-18T06:45:43.116Z,46.70
2023-05-18T06:46:49.094Z,45.64
2023-05-18T06:47:54.942Z,45.64
2023-05-18T06:48:59.129Z,45.66
2023-05-18T06:50:02.230Z,45.04
2023-05-18T06:51:06.401Z,45.62
2023-05-18T06:52:10.498Z,45.44
2023-05-18T06:53:13.618Z,45.41
2023-05-18T06:54:16.668Z,45.19
2023-05-18T06:55:19.699Z,44.90
2023-05-18T06:56:22.740Z,44.83
2023-05-18T06:57:28.025Z,44.99
2023-05-18T06:58:33.898Z,44.81
2023-05-18T06:59:37.890Z,44.64
2023-05-18T07:00:40.533Z,44.20
2023-05-18T07:01:43.278Z,43.21
2023-05-18T07:02:46.831Z,43.54
2023-05-18T07:03:49.759Z,43.54
2023-05-18T07:04:54.644Z,42.81
2023-05-18T07:05:56.829Z,42.85
2023-05-18T07:07:04.764Z,42.98
2023-05-18T07:08:07.444Z,43.10
2023-05-18T07:09:10.035Z,43.32
2023-05-18T07:10:12.819Z,43.05
2023-05-18T07:11:17.802Z,42.92
2023-05-18T07:12:20.622Z,42.90
2023-05-18T07:13:23.293Z,42.39
2023-05-18T07:14:28.826Z,42.23
2023-05-18T07:15:31.294Z,41.56
2023-05-18T07:16:34.930Z,41.30
2023-05-18T07:17:41.545Z,41.24
2023-05-18T07:18:43.823Z,40.86
2023-05-18T07:19:47.774Z,40.79
2023-05-18T07:20:50.793Z,40.73
2023-05-18T07:21:55.878Z,40.50
2023-05-18T07:22:58.230Z,40.02
2023-05-18T07:24:02.907Z,40.04
2023-05-18T07:25:06.802Z,40.11
2023-05-18T07:26:11.396Z,40.30
2023-05-18T07:27:13.836Z,39.64
2023-05-18T07:28:17.676Z,39.64
2023-05-18T07:29:20.459Z,39.13
2023-05-18T07:30:24.074Z,41.15
2023-05-18T07:31:27.320Z,41.78
2023-05-18T07:32:29.932Z,42.52
2023-05-18T07:33:32.455Z,43.71
2023-05-18T07:34:34.872Z,40.02
2023-05-18T07:35:37.589Z,40.22
2023-05-18T07:36:40.054Z,44.66
2023-05-18T07:37:42.460Z,40.96
2023-05-18T07:38:45.252Z,38.51
2023-05-18T07:39:47.434Z,39.20
2023-05-18T07:40:50.677Z,42.05
2023-05-18T07:41:53.009Z,45.09
2023-05-18T07:42:55.521Z,40.06
2023-05-18T07:43:57.798Z,40.84
2023-05-18T07:45:00.379Z,38.56
2023-05-18T07:46:03.054Z,38.11
2023-05-18T07:47:06.347Z,38.65
2023-05-18T07:48:08.774Z,39.97
2023-05-18T07:49:13.376Z,37.93
2023-05-18T07:50:16.227Z,39.77
2023-05-18T07:51:18.738Z,39.99
2023-05-18T07:52:20.914Z,42.93
2023-05-18T07:53:23.862Z,40.97
2023-05-18T07:54:27.063Z,42.05
2023-05-18T07:55:29.919Z,44.59
2023-05-18T07:56:32.967Z,43.45
2023-05-18T07:57:36.143Z,39.10
2023-05-18T07:58:38.949Z,41.95
2023-05-18T07:59:41.374Z,39.48
2023-05-18T08:00:44.284Z,41.15
2023-05-18T08:01:48.447Z,40.61
2023-05-18T08:02:50.882Z,41.15
2023-05-18T08:03:54.130Z,39.65
2023-05-18T08:04:57.616Z,39.45
2023-05-18T08:06:00.271Z,38.66
2023-05-18T08:07:04.494Z,40.40
2023-05-18T08:08:10.299Z,40.05
2023-05-18T08:09:13.794Z,39.76
2023-05-18T08:10:16.980Z,40.76
2023-05-18T08:11:19.290Z,39.20
2023-05-18T08:12:22.722Z,39.41
2023-05-18T08:13:25.167Z,37.92
2023-05-18T08:14:27.405Z,40.50
2023-05-18T08:15:30.035Z,39.07
2023-05-18T08:16:35.147Z,40.52
2023-05-18T08:17:37.677Z,44.56
2023-05-18T08:18:40.330Z,39.21
2023-05-18T08:19:43.450Z,40.38
2023-05-18T08:20:47.904Z,36.00
2023-05-18T08:21:50.774Z,42.44
2023-05-18T08:22:52.956Z,42.22
2023-05-18T08:23:55.734Z,37.99
2023-05-18T08:24:59.760Z,38.92
2023-05-18T08:26:06.472Z,39.27
2023-05-18T08:27:10.588Z,35.84
2023-05-18T08:28:12.784Z,38.84
2023-05-18T08:29:15.878Z,38.33
2023-05-18T08:30:21.264Z,38.79
2023-05-18T08:31:23.748Z,39.86
2023-05-18T08:32:26.196Z,40.69
2023-05-18T08:33:28.967Z,41.42
2023-05-18T08:34:31.295Z,38.80
2023-05-18T08:35:33.640Z,38.86
2023-05-18T08:36:36.797Z,40.79
2023-05-18T08:37:40.227Z,38.80
2023-05-18T08:38:42.744Z,40.66
2023-05-18T08:39:46.706Z,38.36
2023-05-18T08:40:56.080Z,38.72
2023-05-18T08:42:41.497Z,38.23
2023-05-18T08:43:36.976Z,37.10
2023-05-18T08:46:10.202Z,37.50
2023-05-18T08:47:15.802Z,37.85
2023-05-18T08:48:21.789Z,38.17
2023-05-18T08:49:26.152Z,35.29
2023-05-18T08:50:31.184Z,37.46
2023-05-18T08:51:35.501Z,37.40
2023-05-18T08:52:41.477Z,38.37
2023-05-18T08:53:44.550Z,38.18
2023-05-18T08:54:50.337Z,36.44
2023-05-18T08:55:58.749Z,37.78
2023-05-18T08:57:02.748Z,38.71
2023-05-18T08:58:07.329Z,38.10
2023-05-18T08:59:12.255Z,36.82
2023-05-18T09:00:15.512Z,34.07
2023-05-18T09:01:17.767Z,33.36
2023-05-18T09:02:20.168Z,32.76
2023-05-18T09:03:24.951Z,33.90
2023-05-18T09:04:28.266Z,33.79
2023-05-18T09:05:31.611Z,32.32
2023-05-18T09:06:35.397Z,32.64
2023-05-18T09:07:41.348Z,34.82
2023-05-18T09:08:45.995Z,31.32
2023-05-18T09:09:49.381Z,36.46
2023-05-18T09:10:52.242Z,35.93
2023-05-18T09:11:56.564Z,33.62
2023-05-18T09:13:02.991Z,36.67
2023-05-18T09:14:05.479Z,36.87
2023-05-18T09:15:10.422Z,35.76
2023-05-18T09:16:13.139Z,36.33
2023-05-18T09:17:15.465Z,34.08
2023-05-18T09:18:17.637Z,33.83
2023-05-18T09:19:20.124Z,33.73
2023-05-18T09:20:25.794Z,33.44
2023-05-18T09:21:30.763Z,33.77
2023-05-18T09:22:36.496Z,33.02
2023-05-18T09:23:40.956Z,35.49
2023-05-18T09:24:43.992Z,34.99
2023-05-18T09:25:49.430Z,35.79
2023-05-18T09:26:52.832Z,35.47
2023-05-18T09:27:55.223Z,36.88
2023-05-18T09:28:59.462Z,35.44
2023-05-18T09:30:01.711Z,35.44
2023-05-18T09:31:07.339Z,33.71
2023-05-18T09:32:11.498Z,33.98
2023-05-18T09:33:18.122Z,32.55
2023-05-18T09:34:21.055Z,34.32
2023-05-18T09:35:25.086Z,32.93
2023-05-18T09:36:29.170Z,34.98
2023-05-18T09:37:32.536Z,33.79
2023-05-18T09:38:37.781Z,32.02
2023-05-18T09:39:43.003Z,35.06
2023-05-18T09:40:46.781Z,32.53
2023-05-18T09:41:57.565Z,31.82
2023-05-18T09:43:04.348Z,31.37
2023-05-18T09:44:12.621Z,33.18
2023-05-18T09:45:18.906Z,32.61
2023-05-18T09:46:21.650Z,32.61
2023-05-18T09:47:23.907Z,32.81
2023-05-18T09:48:26.014Z,30.69
2023-05-18T09:49:31.162Z,30.25
2023-05-18T09:50:34.302Z,30.12
2023-05-18T09:51:37.637Z,33.78
2023-05-18T09:52:45.477Z,32.10
2023-05-18T09:53:51.024Z,34.61
2023-05-18T09:55:00.334Z,34.26
2023-05-18T09:56:09.084Z,32.99
2023-05-18T09:57:11.646Z,33.17
2023-05-18T09:58:16.916Z,30.04
2023-05-18T09:59:20.433Z,32.84
2023-05-18T10:00:25.719Z,33.77
2023-05-18T10:01:29.937Z,33.56
2023-05-18T10:02:32.222Z,33.22
2023-05-18T10:04:49.563Z,32.45
2023-05-18T10:05:52.026Z,32.80
2023-05-18T10:06:54.383Z,32.52
2023-05-18T10:07:57.548Z,35.41
2023-05-18T10:09:04.964Z,33.59
2023-05-18T10:10:09.350Z,32.96
2023-05-18T10:11:12.018Z,32.42
2023-05-18T10:12:16.268Z,30.13
2023-05-18T10:13:20.290Z,29.65
2023-05-18T10:14:28.190Z,31.62
2023-05-18T10:15:33.008Z,31.32
2023-05-18T10:16:35.589Z,31.89
2023-05-18T10:17:39.555Z,31.66
2023-05-18T10:18:42.651Z,30.76
2023-05-18T10:19:46.424Z,31.26
2023-05-18T10:20:50.471Z,31.57
2023-05-18T10:21:54.222Z,32.23
2023-05-18T10:23:00.283Z,32.21
2023-05-18T10:24:05.313Z,28.49
2023-05-18T10:25:11.237Z,32.78
2023-05-18T10:26:17.005Z,31.40
2023-05-18T10:27:23.985Z,31.23
2023-05-18T10:28:28.995Z,32.21
2023-05-18T10:29:33.596Z,31.16
2023-05-18T10:30:37.217Z,28.20
2023-05-18T10:31:41.592Z,27.93
2023-05-18T10:32:47.518Z,31.52
2023-05-18T10:33:51.578Z,31.51
2023-05-18T10:34:56.291Z,29.75
2023-05-18T10:35:59.280Z,31.46
2023-05-18T10:37:04.214Z,31.02
2023-05-18T10:38:06.878Z,29.89
2023-05-18T10:39:11.389Z,28.57
2023-05-18T10:40:15.127Z,28.20
2023-05-18T10:41:22.269Z,27.66
2023-05-18T10:42:25.987Z,26.88
2023-05-18T10:43:28.791Z,29.96
2023-05-18T10:44:31.643Z,27.31
2023-05-18T10:45:36.735Z,30.15
2023-05-18T10:46:40.706Z,28.35
2023-05-18T10:47:43.926Z,28.13
2023-05-18T10:48:49.683Z,27.48
2023-05-18T10:49:54.000Z,28.69
2023-05-18T10:50:57.738Z,30.29
2023-05-18T10:52:02.622Z,30.44
2023-05-18T10:53:06.346Z,31.67
2023-05-18T10:54:12.569Z,28.33
2023-05-18T10:55:14.955Z,28.76
2023-05-18T10:56:19.067Z,28.50
2023-05-18T10:57:21.670Z,29.96
2023-05-18T10:58:27.048Z,26.80
2023-05-18T10:59:30.234Z,29.83
2023-05-18T11:00:36.037Z,28.68
2023-05-18T11:01:41.449Z,26.39
2023-05-18T11:02:44.888Z,29.56
2023-05-18T11:03:49.080Z,28.85
2023-05-18T11:04:54.252Z,29.42
2023-05-18T11:06:09.795Z,28.08
2023-05-18T11:07:13.789Z,28.36
2023-05-18T11:08:26.128Z,28.31
2023-05-18T11:09:29.461Z,25.84
2023-05-18T11:10:42.840Z,27.02
2023-05-18T11:11:54.359Z,25.54
2023-05-18T11:14:11.962Z,28.15
2023-05-18T11:15:14.282Z,26.87
2023-05-18T11:16:18.143Z,28.27
2023-05-18T11:17:31.392Z,28.09
2023-05-18T11:18:44.002Z,28.34
2023-05-18T11:20:08.744Z,25.50
2023-05-18T11:21:35.039Z,26.74
2023-05-18T11:22:49.228Z,26.02
2023-05-18T11:24:16.400Z,27.88
2023-05-18T11:25:28.766Z,28.32
2023-05-18T11:26:31.861Z,27.68
2023-05-18T11:27:34.806Z,29.64
2023-05-18T11:28:48.296Z,28.89
2023-05-18T11:29:57.789Z,28.13
2023-05-18T11:30:55.276Z,26.18
2023-05-18T11:31:58.024Z,25.77
2023-05-18T11:34:39.822Z,25.14
2023-05-18T11:36:07.175Z,25.15
2023-05-18T11:37:10.242Z,25.35
2023-05-18T11:38:13.084Z,27.27
2023-05-18T11:39:19.991Z,25.77
2023-05-18T11:40:46.236Z,25.77
2023-05-18T11:42:00.776Z,25.27
2023-05-18T11:43:03.671Z,24.11
2023-05-18T11:44:15.394Z,23.71
2023-05-18T11:45:17.701Z,23.96
2023-05-18T11:46:21.650Z,24.94
2023-05-18T11:47:27.446Z,24.77
2023-05-18T11:48:31.651Z,23.97
2023-05-18T11:49:46.689Z,25.47
2023-05-18T11:50:51.640Z,25.65
2023-05-18T11:52:03.688Z,22.60
2023-05-18T11:53:06.168Z,24.01
2023-05-18T11:54:08.639Z,25.48
2023-05-18T11:55:17.483Z,24.86
2023-05-18T11:56:20.864Z,24.86
2023-05-18T11:57:42.151Z,24.43
2023-05-18T11:58:44.555Z,24.12
2023-05-18T11:59:49.434Z,23.67
2023-05-18T12:00:52.952Z,22.28
2023-05-18T12:01:57.973Z,24.80
2023-05-18T12:03:02.055Z,25.42
2023-05-18T12:04:06.710Z,24.52
2023-05-18T12:05:11.249Z,23.71
2023-05-18T12:06:15.650Z,24.19
2023-05-18T12:07:19.911Z,24.40
2023-05-18T12:08:24.678Z,24.40
2023-05-18T12:09:29.006Z,24.19
2023-05-18T12:10:34.814Z,23.72
2023-05-18T12:11:38.115Z,24.36
2023-05-18T12:12:45.665Z,22.74
2023-05-18T12:13:52.353Z,24.01
2023-05-18T12:14:57.649Z,23.65
2023-05-18T12:16:02.025Z,23.51
2023-05-18T12:17:05.121Z,24.87
2023-05-18T12:18:07.396Z,23.61
2023-05-18T12:19:11.101Z,23.96
2023-05-18T12:20:19.593Z,23.58
2023-05-18T12:21:24.177Z,21.93
2023-05-18T12:22:27.153Z,22.57
2023-05-18T12:23:37.684Z,21.03
2023-05-18T12:24:41.080Z,23.59
2023-05-18T12:25:43.600Z,22.72
2023-05-18T12:26:47.944Z,22.55
2023-05-18T12:27:52.892Z,22.38
2023-05-18T12:28:56.088Z,22.92
2023-05-18T12:30:01.262Z,24.09
2023-05-18T12:31:08.995Z,22.49
2023-05-18T12:32:13.672Z,22.22
2023-05-18T12:33:16.588Z,23.72
2023-05-18T12:34:19.628Z,22.34
2023-05-18T12:35:24.518Z,23.01
2023-05-18T12:36:28.118Z,22.59
2023-05-18T12:37:41.635Z,23.79
2023-05-18T12:38:36.993Z,22.02
2023-05-18T12:39:39.279Z,22.76
2023-05-18T12:40:47.182Z,22.33
2023-05-18T12:41:49.614Z,22.73
2023-05-18T12:42:54.223Z,22.59
2023-05-18T12:43:57.834Z,22.90
2023-05-18T12:45:00.412Z,22.22
2023-05-18T12:46:05.815Z,22.85
2023-05-18T12:47:09.455Z,21.66
2023-05-18T12:48:13.071Z,21.37
2023-05-18T12:49:19.001Z,21.62
2023-05-18T12:50:23.099Z,21.20
2023-05-18T12:51:28.399Z,22.67
2023-05-18T12:52:31.072Z,22.04
2023-05-18T12:53:42.612Z,21.93
2023-05-18T12:55:00.541Z,21.08
2023-05-18T12:59:03.958Z,21.52
2023-05-18T13:00:10.410Z,21.62
2023-05-18T13:01:14.277Z,21.62
2023-05-18T13:02:34.667Z,21.09
2023-05-18T13:03:41.287Z,21.19
2023-05-18T13:04:43.891Z,20.73
2023-05-18T13:05:51.471Z,20.34
2023-05-18T13:06:56.874Z,20.71
2023-05-18T13:07:59.306Z,21.19
2023-05-18T13:09:01.426Z,21.13
2023-05-18T13:10:12.076Z,19.65
2023-05-18T13:11:17.541Z,19.89
2023-05-18T13:12:40.334Z,19.86
2023-05-18T13:14:03.579Z,20.34
2023-05-18T13:15:11.967Z,20.04
2023-05-18T13:16:16.832Z,19.60
2023-05-18T13:18:31.185Z,19.76
2023-05-18T13:19:36.720Z,20.17
2023-05-18T13:20:43.694Z,20.27
2023-05-18T13:21:49.892Z,20.14
2023-05-18T13:22:54.639Z,20.03
2023-05-18T13:23:56.944Z,20.26
2023-05-18T13:24:59.274Z,19.80
2023-05-18T13:26:01.912Z,18.63
2023-05-18T13:27:04.213Z,20.72
2023-05-18T13:28:06.736Z,20.01
2023-05-18T13:29:09.958Z,20.22
2023-05-18T13:30:12.817Z,20.24
2023-05-18T13:31:16.172Z,19.88
2023-05-18T13:32:19.246Z,20.49
2023-05-18T13:33:21.960Z,20.04
2023-05-18T13:34:26.539Z,20.35
2023-05-18T13:35:30.252Z,19.36
2023-05-18T13:36:35.396Z,19.85
2023-05-18T13:37:38.883Z,19.84
2023-05-18T13:38:43.096Z,20.96
2023-05-18T13:39:45.441Z,19.96
2023-05-18T13:40:48.847Z,20.60
2023-05-18T13:41:51.113Z,19.66
2023-05-18T13:42:53.295Z,19.96
2023-05-18T13:43:55.418Z,20.57
2023-05-18T13:44:58.156Z,19.75
2023-05-18T13:46:01.720Z,19.81
2023-05-18T13:47:04.433Z,19.14
2023-05-18T13:48:10.971Z,19.09
2023-05-18T13:49:13.686Z,18.45
2023-05-18T13:50:19.478Z,18.02
2023-05-18T13:51:21.866Z,19.25
2023-05-18T13:52:24.512Z,17.45
2023-05-18T13:53:27.331Z,18.04
2023-05-18T13:54:30.703Z,18.29
2023-05-18T13:55:33.080Z,17.46
2023-05-18T13:56:35.849Z,17.48
2023-05-18T13:57:38.690Z,17.77
2023-05-18T13:58:41.341Z,18.15
2023-05-18T13:59:44.463Z,17.59
2023-05-18T14:00:47.199Z,16.89
2023-05-18T14:01:49.877Z,17.01
2023-05-18T14:02:54.835Z,16.34
2023-05-18T14:03:57.282Z,15.98
2023-05-18T14:05:00.702Z,16.06
2023-05-18T14:06:03.129Z,16.19
2023-05-18T14:07:05.369Z,16.72
2023-05-18T14:08:07.914Z,16.56